sensor_id;sensor_type;location;lat;lon;timestamp;temperature;humidity
8792;DHT22;4432;50.890;4.744;2023-05-29T00:00:20;14.70;99.90
8792;DHT22;4432;50.890;4.744;2023-05-29T00:02:47;14.60;99.90
8792;DHT22;4432;50.890;4.744;2023-05-29T00:05:13;14.60;99.90
8792;DHT22;4432;50.890;4.744;2023-05-29T00:07:40;14.60;99.90
8792;DHT22;4432;50.890;4.744;2023-05-29T00:10:07;14.50;99.90
8792;DHT22;4432;50.890;4.744;2023-05-29T00:12:33;14.40;99.90
8792;DHT22;4432;50.890;4.744;2023-05-29T00:14:59;14.40;99.90
8792;DHT22;4432;50.890;4.744;2023-05-29T00:17:25;14.40;99.90
8792;DHT22;4432;50.890;4.744;2023-05-29T00:19:51;14.30;99.90
8792;DHT22;4432;50.890;4.744;2023-05-29T00:22:17;14.30;99.90
8792;DHT22;4432;50.890;4.744;2023-05-29T00:24:44;14.30;99.90
8792;DHT22;4432;50.890;4.744;2023-05-29T00:27:10;14.20;99.90
8792;DHT22;4432;50.890;4.744;2023-05-29T00:29:36;14.20;99.90
8792;DHT22;4432;50.890;4.744;2023-05-29T00:32:07;14.20;99.90
8792;DHT22;4432;50.890;4.744;2023-05-29T00:34:32;14.10;99.90
8792;DHT22;4432;50.890;4.744;2023-05-29T00:36:58;14.10;99.90
8792;DHT22;4432;50.890;4.744;2023-05-29T00:39:24;14.00;99.90
8792;DHT22;4432;50.890;4.744;2023-05-29T00:41:50;14.00;99.90
8792;DHT22;4432;50.890;4.744;2023-05-29T00:44:20;13.90;99.90
8792;DHT22;4432;50.890;4.744;2023-05-29T00:46:49;13.90;99.90
8792;DHT22;4432;50.890;4.744;2023-05-29T00:49:16;13.80;99.90
8792;DHT22;4432;50.890;4.744;2023-05-29T00:51:42;13.80;99.90
8792;DHT22;4432;50.890;4.744;2023-05-29T00:54:12;13.70;99.90
8792;DHT22;4432;50.890;4.744;2023-05-29T00:56:41;13.70;99.90
8792;DHT22;4432;50.890;4.744;2023-05-29T00:59:11;13.60;99.90
8792;DHT22;4432;50.890;4.744;2023-05-29T01:01:38;13.60;99.90
8792;DHT22;4432;50.890;4.744;2023-05-29T01:04:05;13.50;99.90
8792;DHT22;4432;50.890;4.744;2023-05-29T01:06:35;13.40;99.90
8792;DHT22;4432;50.890;4.744;2023-05-29T01:09:01;13.40;99.90
8792;DHT22;4432;50.890;4.744;2023-05-29T01:14:11;13.30;99.90
8792;DHT22;4432;50.890;4.744;2023-05-29T01:16:51;13.20;99.90
8792;DHT22;4432;50.890;4.744;2023-05-29T01:27:43;13.10;99.90
8792;DHT22;4432;50.890;4.744;2023-05-29T01:30:11;13.00;99.90
8792;DHT22;4432;50.890;4.744;2023-05-29T01:32:38;13.00;99.90
8792;DHT22;4432;50.890;4.744;2023-05-29T01:35:05;12.90;99.90
8792;DHT22;4432;50.890;4.744;2023-05-29T01:37:31;12.80;99.90
8792;DHT22;4432;50.890;4.744;2023-05-29T01:39:57;12.80;99.90
8792;DHT22;4432;50.890;4.744;2023-05-29T01:42:22;12.80;99.90
8792;DHT22;4432;50.890;4.744;2023-05-29T01:44:49;12.70;99.90
8792;DHT22;4432;50.890;4.744;2023-05-29T01:47:15;12.70;99.90
8792;DHT22;4432;50.890;4.744;2023-05-29T01:49:42;12.70;99.90
8792;DHT22;4432;50.890;4.744;2023-05-29T01:52:09;12.70;99.90
8792;DHT22;4432;50.890;4.744;2023-05-29T01:54:36;12.70;99.90
8792;DHT22;4432;50.890;4.744;2023-05-29T01:57:02;12.60;99.90
8792;DHT22;4432;50.890;4.744;2023-05-29T01:59:28;12.60;99.90
8792;DHT22;4432;50.890;4.744;2023-05-29T02:01:55;12.60;99.90
8792;DHT22;4432;50.890;4.744;2023-05-29T02:04:21;12.60;99.90
8792;DHT22;4432;50.890;4.744;2023-05-29T02:06:46;12.60;99.90
8792;DHT22;4432;50.890;4.744;2023-05-29T02:09:12;12.60;99.90
8792;DHT22;4432;50.890;4.744;2023-05-29T02:11:38;12.60;99.90
8792;DHT22;4432;50.890;4.744;2023-05-29T02:14:10;12.50;99.90
8792;DHT22;4432;50.890;4.744;2023-05-29T02:16:35;12.50;99.90
8792;DHT22;4432;50.890;4.744;2023-05-29T02:19:01;12.50;99.90
8792;DHT22;4432;50.890;4.744;2023-05-29T02:21:27;12.40;99.90
8792;DHT22;4432;50.890;4.744;2023-05-29T02:23:53;12.40;99.90
8792;DHT22;4432;50.890;4.744;2023-05-29T02:26:19;12.30;99.90
8792;DHT22;4432;50.890;4.744;2023-05-29T02:28:45;12.30;99.90
8792;DHT22;4432;50.890;4.744;2023-05-29T02:31:11;12.30;99.90
8792;DHT22;4432;50.890;4.744;2023-05-29T02:33:36;12.30;99.90
8792;DHT22;4432;50.890;4.744;2023-05-29T02:36:02;12.30;99.90
8792;DHT22;4432;50.890;4.744;2023-05-29T02:38:28;12.30;99.90
8792;DHT22;4432;50.890;4.744;2023-05-29T02:40:54;12.20;99.90
8792;DHT22;4432;50.890;4.744;2023-05-29T02:43:21;12.20;99.90
8792;DHT22;4432;50.890;4.744;2023-05-29T02:45:47;12.20;99.90
8792;DHT22;4432;50.890;4.744;2023-05-29T02:48:13;12.10;99.90
8792;DHT22;4432;50.890;4.744;2023-05-29T02:50:39;12.10;99.90
8792;DHT22;4432;50.890;4.744;2023-05-29T02:53:06;12.00;99.90
8792;DHT22;4432;50.890;4.744;2023-05-29T02:55:31;12.00;99.90
8792;DHT22;4432;50.890;4.744;2023-05-29T02:58:01;12.00;99.90
8792;DHT22;4432;50.890;4.744;2023-05-29T03:00:27;11.90;99.90
8792;DHT22;4432;50.890;4.744;2023-05-29T03:02:54;11.80;99.90
8792;DHT22;4432;50.890;4.744;2023-05-29T03:05:20;11.70;99.90
8792;DHT22;4432;50.890;4.744;2023-05-29T03:07:46;11.70;99.90
8792;DHT22;4432;50.890;4.744;2023-05-29T03:10:12;11.60;99.90
8792;DHT22;4432;50.890;4.744;2023-05-29T03:12:38;11.60;99.90
8792;DHT22;4432;50.890;4.744;2023-05-29T03:15:05;11.60;99.90
8792;DHT22;4432;50.890;4.744;2023-05-29T03:17:31;11.50;99.90
8792;DHT22;4432;50.890;4.744;2023-05-29T03:19:56;11.50;99.90
8792;DHT22;4432;50.890;4.744;2023-05-29T03:22:23;11.50;99.90
8792;DHT22;4432;50.890;4.744;2023-05-29T03:24:48;11.40;99.90
8792;DHT22;4432;50.890;4.744;2023-05-29T03:27:14;11.40;99.90
8792;DHT22;4432;50.890;4.744;2023-05-29T03:29:40;11.40;99.90
8792;DHT22;4432;50.890;4.744;2023-05-29T03:32:06;11.30;99.90
8792;DHT22;4432;50.890;4.744;2023-05-29T03:34:31;11.30;99.90
8792;DHT22;4432;50.890;4.744;2023-05-29T03:36:57;11.30;99.90
8792;DHT22;4432;50.890;4.744;2023-05-29T03:39:23;11.30;99.90
8792;DHT22;4432;50.890;4.744;2023-05-29T03:41:49;11.20;99.90
8792;DHT22;4432;50.890;4.744;2023-05-29T03:44:15;11.20;99.90
8792;DHT22;4432;50.890;4.744;2023-05-29T03:46:41;11.20;99.90
8792;DHT22;4432;50.890;4.744;2023-05-29T03:49:06;11.20;99.90
8792;DHT22;4432;50.890;4.744;2023-05-29T03:51:32;11.20;99.90
8792;DHT22;4432;50.890;4.744;2023-05-29T03:53:58;11.10;99.90
8792;DHT22;4432;50.890;4.744;2023-05-29T03:56:24;11.10;99.90
8792;DHT22;4432;50.890;4.744;2023-05-29T03:58:50;11.10;99.90
8792;DHT22;4432;50.890;4.744;2023-05-29T04:01:16;11.10;99.90
8792;DHT22;4432;50.890;4.744;2023-05-29T04:03:42;11.10;99.90
8792;DHT22;4432;50.890;4.744;2023-05-29T04:06:09;11.10;99.90
8792;DHT22;4432;50.890;4.744;2023-05-29T04:08:36;11.10;99.90
8792;DHT22;4432;50.890;4.744;2023-05-29T04:11:02;11.10;99.90
8792;DHT22;4432;50.890;4.744;2023-05-29T04:13:29;11.10;99.90
8792;DHT22;4432;50.890;4.744;2023-05-29T04:15:55;11.10;99.90
8792;DHT22;4432;50.890;4.744;2023-05-29T04:18:21;11.10;99.90
8792;DHT22;4432;50.890;4.744;2023-05-29T04:20:47;11.20;99.90
8792;DHT22;4432;50.890;4.744;2023-05-29T04:23:13;11.20;99.90
8792;DHT22;4432;50.890;4.744;2023-05-29T04:25:39;11.20;99.90
8792;DHT22;4432;50.890;4.744;2023-05-29T04:28:05;11.10;99.90
8792;DHT22;4432;50.890;4.744;2023-05-29T04:30:30;11.20;99.90
8792;DHT22;4432;50.890;4.744;2023-05-29T04:32:59;11.10;99.90
8792;DHT22;4432;50.890;4.744;2023-05-29T04:35:24;11.20;99.90
8792;DHT22;4432;50.890;4.744;2023-05-29T04:37:50;11.10;99.90
8792;DHT22;4432;50.890;4.744;2023-05-29T04:40:16;11.20;99.90
8792;DHT22;4432;50.890;4.744;2023-05-29T04:42:43;11.20;99.90
8792;DHT22;4432;50.890;4.744;2023-05-29T04:45:11;11.20;99.90
8792;DHT22;4432;50.890;4.744;2023-05-29T04:47:37;11.20;99.90
8792;DHT22;4432;50.890;4.744;2023-05-29T04:50:12;11.30;99.90
8792;DHT22;4432;50.890;4.744;2023-05-29T04:52:38;11.30;99.90
8792;DHT22;4432;50.890;4.744;2023-05-29T04:55:05;11.40;99.90
8792;DHT22;4432;50.890;4.744;2023-05-29T04:57:31;11.40;99.90
8792;DHT22;4432;50.890;4.744;2023-05-29T04:59:57;11.40;99.90
8792;DHT22;4432;50.890;4.744;2023-05-29T05:02:23;11.40;99.90
8792;DHT22;4432;50.890;4.744;2023-05-29T05:04:48;11.50;99.90
8792;DHT22;4432;50.890;4.744;2023-05-29T05:07:15;11.50;99.90
8792;DHT22;4432;50.890;4.744;2023-05-29T05:09:42;11.50;99.90
8792;DHT22;4432;50.890;4.744;2023-05-29T05:12:08;11.50;99.90
8792;DHT22;4432;50.890;4.744;2023-05-29T05:14:34;11.50;99.90
8792;DHT22;4432;50.890;4.744;2023-05-29T05:17:00;11.50;99.90
8792;DHT22;4432;50.890;4.744;2023-05-29T05:19:26;11.60;99.90
8792;DHT22;4432;50.890;4.744;2023-05-29T05:21:52;11.60;99.90
8792;DHT22;4432;50.890;4.744;2023-05-29T05:24:17;11.60;99.90
8792;DHT22;4432;50.890;4.744;2023-05-29T05:26:43;11.70;99.90
8792;DHT22;4432;50.890;4.744;2023-05-29T05:29:09;11.80;99.90
8792;DHT22;4432;50.890;4.744;2023-05-29T05:31:35;11.70;99.90
8792;DHT22;4432;50.890;4.744;2023-05-29T05:34:00;11.70;99.90
8792;DHT22;4432;50.890;4.744;2023-05-29T05:36:26;11.80;99.90
8792;DHT22;4432;50.890;4.744;2023-05-29T05:38:52;11.70;99.90
8792;DHT22;4432;50.890;4.744;2023-05-29T05:41:18;11.70;99.90
8792;DHT22;4432;50.890;4.744;2023-05-29T05:43:44;11.80;99.90
8792;DHT22;4432;50.890;4.744;2023-05-29T05:46:09;11.90;99.90
8792;DHT22;4432;50.890;4.744;2023-05-29T05:48:35;11.90;99.90
8792;DHT22;4432;50.890;4.744;2023-05-29T05:51:01;12.00;99.90
8792;DHT22;4432;50.890;4.744;2023-05-29T05:53:27;12.10;99.90
8792;DHT22;4432;50.890;4.744;2023-05-29T05:55:53;12.30;99.90
8792;DHT22;4432;50.890;4.744;2023-05-29T05:58:19;12.40;99.90
8792;DHT22;4432;50.890;4.744;2023-05-29T06:00:45;12.40;99.90
8792;DHT22;4432;50.890;4.744;2023-05-29T06:03:11;12.40;99.90
8792;DHT22;4432;50.890;4.744;2023-05-29T06:05:37;12.40;99.90
8792;DHT22;4432;50.890;4.744;2023-05-29T06:08:03;12.50;99.90
8792;DHT22;4432;50.890;4.744;2023-05-29T06:10:29;12.60;99.90
8792;DHT22;4432;50.890;4.744;2023-05-29T06:12:55;12.60;99.90
8792;DHT22;4432;50.890;4.744;2023-05-29T06:15:20;12.50;99.90
8792;DHT22;4432;50.890;4.744;2023-05-29T06:17:46;12.40;99.90
8792;DHT22;4432;50.890;4.744;2023-05-29T06:20:12;12.40;99.90
8792;DHT22;4432;50.890;4.744;2023-05-29T06:22:39;12.40;99.90
8792;DHT22;4432;50.890;4.744;2023-05-29T06:25:05;12.40;99.90
8792;DHT22;4432;50.890;4.744;2023-05-29T06:27:31;12.50;99.90
8792;DHT22;4432;50.890;4.744;2023-05-29T06:29:57;12.70;99.90
8792;DHT22;4432;50.890;4.744;2023-05-29T06:32:23;12.90;99.90
8792;DHT22;4432;50.890;4.744;2023-05-29T06:34:49;12.90;99.90
8792;DHT22;4432;50.890;4.744;2023-05-29T06:37:14;12.90;99.90
8792;DHT22;4432;50.890;4.744;2023-05-29T06:39:43;13.00;99.90
8792;DHT22;4432;50.890;4.744;2023-05-29T06:42:09;13.10;99.90
8792;DHT22;4432;50.890;4.744;2023-05-29T06:44:35;13.20;99.90
8792;DHT22;4432;50.890;4.744;2023-05-29T06:47:01;13.20;99.90
8792;DHT22;4432;50.890;4.744;2023-05-29T06:49:27;13.20;99.90
8792;DHT22;4432;50.890;4.744;2023-05-29T06:51:52;13.40;99.90
8792;DHT22;4432;50.890;4.744;2023-05-29T06:54:18;13.40;99.90
8792;DHT22;4432;50.890;4.744;2023-05-29T06:56:44;13.40;99.90
8792;DHT22;4432;50.890;4.744;2023-05-29T06:59:10;13.50;99.90
8792;DHT22;4432;50.890;4.744;2023-05-29T07:01:36;13.60;99.90
8792;DHT22;4432;50.890;4.744;2023-05-29T07:04:01;13.60;99.90
8792;DHT22;4432;50.890;4.744;2023-05-29T07:06:27;13.50;99.90
8792;DHT22;4432;50.890;4.744;2023-05-29T07:08:53;13.60;99.90
8792;DHT22;4432;50.890;4.744;2023-05-29T07:11:19;13.80;99.90
8792;DHT22;4432;50.890;4.744;2023-05-29T07:13:44;14.00;99.90
8792;DHT22;4432;50.890;4.744;2023-05-29T07:16:10;13.90;99.90
8792;DHT22;4432;50.890;4.744;2023-05-29T07:18:36;14.10;99.90
8792;DHT22;4432;50.890;4.744;2023-05-29T07:21:02;14.00;99.90
8792;DHT22;4432;50.890;4.744;2023-05-29T07:23:28;14.20;99.90
8792;DHT22;4432;50.890;4.744;2023-05-29T07:25:53;14.20;99.90
8792;DHT22;4432;50.890;4.744;2023-05-29T07:28:19;14.20;99.90
8792;DHT22;4432;50.890;4.744;2023-05-29T07:30:45;14.50;99.90
8792;DHT22;4432;50.890;4.744;2023-05-29T07:33:11;14.40;99.90
8792;DHT22;4432;50.890;4.744;2023-05-29T07:35:36;14.40;99.90
8792;DHT22;4432;50.890;4.744;2023-05-29T07:38:03;14.40;99.90
8792;DHT22;4432;50.890;4.744;2023-05-29T07:40:28;14.50;99.90
8792;DHT22;4432;50.890;4.744;2023-05-29T07:42:54;14.40;99.90
8792;DHT22;4432;50.890;4.744;2023-05-29T07:45:20;14.60;99.90
8792;DHT22;4432;50.890;4.744;2023-05-29T07:47:46;14.90;99.90
8792;DHT22;4432;50.890;4.744;2023-05-29T07:50:14;14.90;99.90
8792;DHT22;4432;50.890;4.744;2023-05-29T07:52:39;15.10;99.90
8792;DHT22;4432;50.890;4.744;2023-05-29T07:55:05;15.00;99.90
8792;DHT22;4432;50.890;4.744;2023-05-29T07:57:31;14.80;99.90
8792;DHT22;4432;50.890;4.744;2023-05-29T07:59:57;15.00;99.90
8792;DHT22;4432;50.890;4.744;2023-05-29T08:02:23;15.10;99.90
8792;DHT22;4432;50.890;4.744;2023-05-29T08:04:48;15.00;99.90
8792;DHT22;4432;50.890;4.744;2023-05-29T08:07:14;15.10;99.90
8792;DHT22;4432;50.890;4.744;2023-05-29T08:09:40;15.00;99.90
8792;DHT22;4432;50.890;4.744;2023-05-29T08:12:06;15.30;99.90
8792;DHT22;4432;50.890;4.744;2023-05-29T08:14:32;15.40;99.90
8792;DHT22;4432;50.890;4.744;2023-05-29T08:16:58;15.40;99.90
8792;DHT22;4432;50.890;4.744;2023-05-29T08:19:24;15.60;99.90
8792;DHT22;4432;50.890;4.744;2023-05-29T08:21:50;15.70;99.90
8792;DHT22;4432;50.890;4.744;2023-05-29T08:24:16;15.70;99.90
8792;DHT22;4432;50.890;4.744;2023-05-29T08:26:43;15.80;99.90
8792;DHT22;4432;50.890;4.744;2023-05-29T08:29:09;15.60;99.90
8792;DHT22;4432;50.890;4.744;2023-05-29T08:31:35;15.40;99.90
8792;DHT22;4432;50.890;4.744;2023-05-29T08:34:01;15.40;99.90
8792;DHT22;4432;50.890;4.744;2023-05-29T08:36:27;15.70;99.90
8792;DHT22;4432;50.890;4.744;2023-05-29T08:38:53;15.90;99.90
8792;DHT22;4432;50.890;4.744;2023-05-29T08:41:28;15.90;99.90
8792;DHT22;4432;50.890;4.744;2023-05-29T08:43:59;16.00;99.90
8792;DHT22;4432;50.890;4.744;2023-05-29T08:46:26;16.40;99.90
8792;DHT22;4432;50.890;4.744;2023-05-29T08:48:53;16.70;99.90
8792;DHT22;4432;50.890;4.744;2023-05-29T08:51:27;16.50;99.90
8792;DHT22;4432;50.890;4.744;2023-05-29T08:53:56;16.30;99.90
8792;DHT22;4432;50.890;4.744;2023-05-29T08:56:23;16.30;99.90
8792;DHT22;4432;50.890;4.744;2023-05-29T08:58:49;16.60;99.90
8792;DHT22;4432;50.890;4.744;2023-05-29T09:01:16;16.70;99.90
8792;DHT22;4432;50.890;4.744;2023-05-29T09:03:42;17.00;99.90
8792;DHT22;4432;50.890;4.744;2023-05-29T09:06:08;17.70;99.90
8792;DHT22;4432;50.890;4.744;2023-05-29T09:08:35;18.00;99.90
8792;DHT22;4432;50.890;4.744;2023-05-29T09:11:01;18.20;99.90
8792;DHT22;4432;50.890;4.744;2023-05-29T09:13:27;18.40;99.90
8792;DHT22;4432;50.890;4.744;2023-05-29T09:16:00;18.70;99.90
8792;DHT22;4432;50.890;4.744;2023-05-29T09:18:30;18.50;99.90
8792;DHT22;4432;50.890;4.744;2023-05-29T09:20:57;18.90;99.90
8792;DHT22;4432;50.890;4.744;2023-05-29T09:23:24;18.90;99.90
8792;DHT22;4432;50.890;4.744;2023-05-29T09:25:54;18.70;99.90
8792;DHT22;4432;50.890;4.744;2023-05-29T09:28:23;18.80;99.90
8792;DHT22;4432;50.890;4.744;2023-05-29T09:30:49;18.30;99.90
8792;DHT22;4432;50.890;4.744;2023-05-29T09:33:16;18.20;99.90
8792;DHT22;4432;50.890;4.744;2023-05-29T09:35:44;18.20;99.90
8792;DHT22;4432;50.890;4.744;2023-05-29T09:38:11;18.40;99.90
8792;DHT22;4432;50.890;4.744;2023-05-29T09:40:38;18.60;99.90
8792;DHT22;4432;50.890;4.744;2023-05-29T09:43:15;18.40;99.90
8792;DHT22;4432;50.890;4.744;2023-05-29T09:45:47;18.30;99.90
8792;DHT22;4432;50.890;4.744;2023-05-29T09:48:14;18.70;99.90
8792;DHT22;4432;50.890;4.744;2023-05-29T09:50:40;18.70;99.90
8792;DHT22;4432;50.890;4.744;2023-05-29T09:53:25;18.70;99.90
8792;DHT22;4432;50.890;4.744;2023-05-29T09:55:51;18.80;99.90
8792;DHT22;4432;50.890;4.744;2023-05-29T09:58:18;18.80;99.90
8792;DHT22;4432;50.890;4.744;2023-05-29T10:00:45;19.30;99.70
8792;DHT22;4432;50.890;4.744;2023-05-29T10:03:12;19.40;99.60
8792;DHT22;4432;50.890;4.744;2023-05-29T10:05:40;19.10;99.50
8792;DHT22;4432;50.890;4.744;2023-05-29T10:08:11;18.80;99.80
8792;DHT22;4432;50.890;4.744;2023-05-29T10:10:41;19.10;99.90
8792;DHT22;4432;50.890;4.744;2023-05-29T10:13:11;19.30;99.40
8792;DHT22;4432;50.890;4.744;2023-05-29T10:15:37;19.30;99.90
8792;DHT22;4432;50.890;4.744;2023-05-29T10:20:38;19.00;99.90
8792;DHT22;4432;50.890;4.744;2023-05-29T10:23:04;19.00;99.90
8792;DHT22;4432;50.890;4.744;2023-05-29T10:25:33;19.20;99.40
8792;DHT22;4432;50.890;4.744;2023-05-29T10:28:00;19.10;98.70
8792;DHT22;4432;50.890;4.744;2023-05-29T10:30:37;18.90;99.70
8792;DHT22;4432;50.890;4.744;2023-05-29T10:33:33;19.10;99.90
8792;DHT22;4432;50.890;4.744;2023-05-29T10:36:16;19.20;99.80
8792;DHT22;4432;50.890;4.744;2023-05-29T10:38:48;19.30;99.80
8792;DHT22;4432;50.890;4.744;2023-05-29T10:43:57;18.80;99.50
8792;DHT22;4432;50.890;4.744;2023-05-29T10:49:17;19.20;99.00
8792;DHT22;4432;50.890;4.744;2023-05-29T10:51:43;18.90;99.20
8792;DHT22;4432;50.890;4.744;2023-05-29T10:54:09;18.80;99.90
8792;DHT22;4432;50.890;4.744;2023-05-29T10:56:36;19.00;99.50
8792;DHT22;4432;50.890;4.744;2023-05-29T10:59:02;19.00;99.40
8792;DHT22;4432;50.890;4.744;2023-05-29T11:01:29;19.10;99.10
8792;DHT22;4432;50.890;4.744;2023-05-29T11:06:44;19.40;99.20
8792;DHT22;4432;50.890;4.744;2023-05-29T11:09:32;19.40;99.30
8792;DHT22;4432;50.890;4.744;2023-05-29T11:12:20;19.40;99.10
8792;DHT22;4432;50.890;4.744;2023-05-29T11:15:10;19.50;98.70
8792;DHT22;4432;50.890;4.744;2023-05-29T11:20:16;19.00;98.70
8792;DHT22;4432;50.890;4.744;2023-05-29T11:25:15;19.90;97.50
8792;DHT22;4432;50.890;4.744;2023-05-29T11:27:44;19.90;97.10
8792;DHT22;4432;50.890;4.744;2023-05-29T11:30:10;20.10;97.60
8792;DHT22;4432;50.890;4.744;2023-05-29T11:32:37;20.30;97.80
8792;DHT22;4432;50.890;4.744;2023-05-29T11:35:08;19.90;96.30
8792;DHT22;4432;50.890;4.744;2023-05-29T11:37:42;19.60;97.40
8792;DHT22;4432;50.890;4.744;2023-05-29T11:40:10;19.60;97.20
8792;DHT22;4432;50.890;4.744;2023-05-29T11:42:41;19.50;97.70
8792;DHT22;4432;50.890;4.744;2023-05-29T11:45:31;19.70;98.30
8792;DHT22;4432;50.890;4.744;2023-05-29T11:47:59;19.80;96.90
8792;DHT22;4432;50.890;4.744;2023-05-29T11:50:28;19.70;96.70
8792;DHT22;4432;50.890;4.744;2023-05-29T11:52:55;19.90;97.20
8792;DHT22;4432;50.890;4.744;2023-05-29T11:55:22;20.00;96.30
8792;DHT22;4432;50.890;4.744;2023-05-29T11:57:52;19.90;96.00
8792;DHT22;4432;50.890;4.744;2023-05-29T12:00:21;19.90;95.70
8792;DHT22;4432;50.890;4.744;2023-05-29T12:02:48;20.00;96.70
8792;DHT22;4432;50.890;4.744;2023-05-29T12:05:16;20.10;96.40
8792;DHT22;4432;50.890;4.744;2023-05-29T12:07:48;20.30;96.50
8792;DHT22;4432;50.890;4.744;2023-05-29T12:10:16;20.40;96.20
8792;DHT22;4432;50.890;4.744;2023-05-29T12:12:46;20.50;95.40
8792;DHT22;4432;50.890;4.744;2023-05-29T12:15:12;20.20;95.60
8792;DHT22;4432;50.890;4.744;2023-05-29T12:17:40;20.40;96.00
8792;DHT22;4432;50.890;4.744;2023-05-29T12:20:07;20.30;95.50
8792;DHT22;4432;50.890;4.744;2023-05-29T12:22:36;20.60;95.00
8792;DHT22;4432;50.890;4.744;2023-05-29T12:25:10;20.50;93.90
8792;DHT22;4432;50.890;4.744;2023-05-29T12:27:41;20.20;94.30
8792;DHT22;4432;50.890;4.744;2023-05-29T12:30:09;20.30;94.10
8792;DHT22;4432;50.890;4.744;2023-05-29T12:32:39;20.40;94.50
8792;DHT22;4432;50.890;4.744;2023-05-29T12:35:17;20.50;94.30
8792;DHT22;4432;50.890;4.744;2023-05-29T12:40:29;20.80;93.60
8792;DHT22;4432;50.890;4.744;2023-05-29T12:43:06;21.00;94.60
8792;DHT22;4432;50.890;4.744;2023-05-29T12:45:33;21.10;94.50
8792;DHT22;4432;50.890;4.744;2023-05-29T12:48:00;21.10;92.80
8792;DHT22;4432;50.890;4.744;2023-05-29T12:50:31;21.00;93.30
8792;DHT22;4432;50.890;4.744;2023-05-29T12:53:03;20.90;91.20
8792;DHT22;4432;50.890;4.744;2023-05-29T12:55:41;20.70;92.30
8792;DHT22;4432;50.890;4.744;2023-05-29T12:58:09;20.40;92.30
8792;DHT22;4432;50.890;4.744;2023-05-29T13:00:37;20.30;92.60
8792;DHT22;4432;50.890;4.744;2023-05-29T13:03:04;20.50;92.90
8792;DHT22;4432;50.890;4.744;2023-05-29T13:05:31;20.50;92.40
8792;DHT22;4432;50.890;4.744;2023-05-29T13:07:57;20.60;92.10
8792;DHT22;4432;50.890;4.744;2023-05-29T13:10:24;20.80;93.70
8792;DHT22;4432;50.890;4.744;2023-05-29T13:12:52;20.70;91.60
8792;DHT22;4432;50.890;4.744;2023-05-29T13:15:21;20.70;91.90
8792;DHT22;4432;50.890;4.744;2023-05-29T13:17:47;20.70;92.40
8792;DHT22;4432;50.890;4.744;2023-05-29T13:20:13;20.50;92.40
8792;DHT22;4432;50.890;4.744;2023-05-29T13:22:42;20.90;92.20
8792;DHT22;4432;50.890;4.744;2023-05-29T13:25:09;21.10;90.30
8792;DHT22;4432;50.890;4.744;2023-05-29T13:27:42;20.80;90.40
8792;DHT22;4432;50.890;4.744;2023-05-29T13:30:08;20.90;90.80
8792;DHT22;4432;50.890;4.744;2023-05-29T13:32:35;20.90;90.60
8792;DHT22;4432;50.890;4.744;2023-05-29T13:35:01;21.00;91.80
8792;DHT22;4432;50.890;4.744;2023-05-29T13:37:27;21.00;90.80
8792;DHT22;4432;50.890;4.744;2023-05-29T13:39:53;21.10;90.70
8792;DHT22;4432;50.890;4.744;2023-05-29T13:42:20;20.80;91.60
8792;DHT22;4432;50.890;4.744;2023-05-29T13:44:47;21.00;91.50
8792;DHT22;4432;50.890;4.744;2023-05-29T13:47:13;21.20;92.00
8792;DHT22;4432;50.890;4.744;2023-05-29T13:49:39;21.20;91.90
8792;DHT22;4432;50.890;4.744;2023-05-29T13:52:06;21.30;92.00
8792;DHT22;4432;50.890;4.744;2023-05-29T13:54:32;21.20;90.40
8792;DHT22;4432;50.890;4.744;2023-05-29T13:57:05;21.20;92.30
8792;DHT22;4432;50.890;4.744;2023-05-29T13:59:34;21.00;90.00
8792;DHT22;4432;50.890;4.744;2023-05-29T14:02:01;20.90;90.80
8792;DHT22;4432;50.890;4.744;2023-05-29T14:04:29;21.20;91.60
8792;DHT22;4432;50.890;4.744;2023-05-29T14:06:55;21.40;87.90
8792;DHT22;4432;50.890;4.744;2023-05-29T14:09:22;21.00;88.60
8792;DHT22;4432;50.890;4.744;2023-05-29T14:11:59;20.80;88.90
8792;DHT22;4432;50.890;4.744;2023-05-29T14:14:26;21.00;89.80
8792;DHT22;4432;50.890;4.744;2023-05-29T14:16:53;21.20;89.60
8792;DHT22;4432;50.890;4.744;2023-05-29T14:19:20;21.60;90.00
8792;DHT22;4432;50.890;4.744;2023-05-29T14:21:46;21.50;89.90
8792;DHT22;4432;50.890;4.744;2023-05-29T14:24:12;21.50;87.40
8792;DHT22;4432;50.890;4.744;2023-05-29T14:26:38;21.40;83.60
8792;DHT22;4432;50.890;4.744;2023-05-29T14:29:04;21.40;85.70
8792;DHT22;4432;50.890;4.744;2023-05-29T14:31:31;21.10;85.90
8792;DHT22;4432;50.890;4.744;2023-05-29T14:33:57;20.80;85.90
8792;DHT22;4432;50.890;4.744;2023-05-29T14:36:23;20.80;84.70
8792;DHT22;4432;50.890;4.744;2023-05-29T14:38:49;20.80;84.50
8792;DHT22;4432;50.890;4.744;2023-05-29T14:41:15;20.70;88.10
8792;DHT22;4432;50.890;4.744;2023-05-29T14:43:44;20.90;85.70
8792;DHT22;4432;50.890;4.744;2023-05-29T14:46:10;21.00;85.50
8792;DHT22;4432;50.890;4.744;2023-05-29T14:48:37;21.00;87.70
8792;DHT22;4432;50.890;4.744;2023-05-29T14:51:02;21.10;88.70
8792;DHT22;4432;50.890;4.744;2023-05-29T14:53:28;21.20;86.20
8792;DHT22;4432;50.890;4.744;2023-05-29T14:55:56;21.30;85.90
8792;DHT22;4432;50.890;4.744;2023-05-29T14:58:22;21.20;85.90
8792;DHT22;4432;50.890;4.744;2023-05-29T15:00:47;21.00;85.50
8792;DHT22;4432;50.890;4.744;2023-05-29T15:03:13;20.90;86.50
8792;DHT22;4432;50.890;4.744;2023-05-29T15:05:39;20.80;88.10
8792;DHT22;4432;50.890;4.744;2023-05-29T15:08:05;20.90;88.00
8792;DHT22;4432;50.890;4.744;2023-05-29T15:10:31;21.00;89.30
8792;DHT22;4432;50.890;4.744;2023-05-29T15:12:58;21.20;88.40
8792;DHT22;4432;50.890;4.744;2023-05-29T15:15:27;21.20;86.30
8792;DHT22;4432;50.890;4.744;2023-05-29T15:17:54;21.10;83.70
8792;DHT22;4432;50.890;4.744;2023-05-29T15:20:22;20.80;85.00
8792;DHT22;4432;50.890;4.744;2023-05-29T15:22:48;20.40;84.20
8792;DHT22;4432;50.890;4.744;2023-05-29T15:25:15;20.30;85.60
8792;DHT22;4432;50.890;4.744;2023-05-29T15:27:41;20.10;88.70
8792;DHT22;4432;50.890;4.744;2023-05-29T15:30:14;20.30;89.10
8792;DHT22;4432;50.890;4.744;2023-05-29T15:32:43;20.40;89.20
8792;DHT22;4432;50.890;4.744;2023-05-29T15:35:13;20.40;86.80
8792;DHT22;4432;50.890;4.744;2023-05-29T15:37:40;20.30;86.90
8792;DHT22;4432;50.890;4.744;2023-05-29T15:40:07;20.00;85.90
8792;DHT22;4432;50.890;4.744;2023-05-29T15:42:35;19.90;90.00
8792;DHT22;4432;50.890;4.744;2023-05-29T15:45:02;20.00;87.20
8792;DHT22;4432;50.890;4.744;2023-05-29T15:47:29;20.00;86.60
8792;DHT22;4432;50.890;4.744;2023-05-29T15:49:57;20.20;86.70
8792;DHT22;4432;50.890;4.744;2023-05-29T15:52:24;20.20;88.40
8792;DHT22;4432;50.890;4.744;2023-05-29T15:54:50;20.20;85.90
8792;DHT22;4432;50.890;4.744;2023-05-29T15:57:16;20.00;85.70
8792;DHT22;4432;50.890;4.744;2023-05-29T15:59:42;19.90;82.10
8792;DHT22;4432;50.890;4.744;2023-05-29T16:02:07;19.80;83.40
8792;DHT22;4432;50.890;4.744;2023-05-29T16:04:34;19.60;81.40
8792;DHT22;4432;50.890;4.744;2023-05-29T16:07:00;19.60;82.30
8792;DHT22;4432;50.890;4.744;2023-05-29T16:09:27;19.60;81.60
8792;DHT22;4432;50.890;4.744;2023-05-29T16:11:53;19.60;79.20
8792;DHT22;4432;50.890;4.744;2023-05-29T16:14:19;19.50;77.70
8792;DHT22;4432;50.890;4.744;2023-05-29T16:16:45;19.50;80.50
8792;DHT22;4432;50.890;4.744;2023-05-29T16:19:11;19.50;78.20
8792;DHT22;4432;50.890;4.744;2023-05-29T16:21:37;19.40;78.40
8792;DHT22;4432;50.890;4.744;2023-05-29T16:24:03;19.40;79.70
8792;DHT22;4432;50.890;4.744;2023-05-29T16:26:29;19.50;80.10
8792;DHT22;4432;50.890;4.744;2023-05-29T16:28:59;19.40;77.70
8792;DHT22;4432;50.890;4.744;2023-05-29T16:31:26;19.30;78.50